createdAt,value
2023-04-17T00:01:04.973Z,4.03
2023-04-17T00:03:36.010Z,4.22
2023-04-17T00:06:07.313Z,4.05
2023-04-17T00:08:38.197Z,4.13
2023-04-17T00:11:11.701Z,3.97
2023-04-17T00:13:44.280Z,3.50
2023-04-17T00:16:15.076Z,4.90
2023-04-17T00:18:45.885Z,4.20
2023-04-17T00:21:16.754Z,4.15
2023-04-17T00:23:47.809Z,4.28
2023-04-17T00:26:21.406Z,4.70
2023-04-17T00:28:52.995Z,4.03
2023-04-17T00:31:24.115Z,4.60
2023-04-17T00:33:55.211Z,4.40
2023-04-17T00:36:27.591Z,4.10
2023-04-17T00:38:58.389Z,5.07
2023-04-17T00:41:32.208Z,4.65
2023-04-17T00:44:03.037Z,4.60
2023-04-17T00:46:34.446Z,4.53
2023-04-17T00:49:05.557Z,5.22
2023-04-17T00:51:36.746Z,4.95
2023-04-17T00:54:08.863Z,5.32
2023-04-17T00:56:42.680Z,4.70
2023-04-17T00:59:16.209Z,5.22
2023-04-17T01:01:47.291Z,5.85
2023-04-17T01:04:18.331Z,5.10
2023-04-17T01:06:49.414Z,5.47
2023-04-17T01:09:20.851Z,4.97
2023-04-17T01:11:54.249Z,5.85
2023-04-17T01:14:25.099Z,5.13
2023-04-17T01:16:56.013Z,5.15
2023-04-17T01:19:27.489Z,5.35
2023-04-17T01:21:58.265Z,4.93
2023-04-17T01:24:31.676Z,5.05
2023-04-17T01:27:02.569Z,4.72
2023-04-17T01:29:34.555Z,4.82
2023-04-17T01:32:05.670Z,4.78
2023-04-17T01:34:37.610Z,4.70
2023-04-17T01:37:08.726Z,5.38
2023-04-17T01:39:42.189Z,5.05
2023-04-17T01:42:13.156Z,4.90
2023-04-17T01:44:44.155Z,4.60
2023-04-17T01:47:15.036Z,4.90
2023-04-17T01:49:45.893Z,4.93
2023-04-17T01:52:17.269Z,5.20
2023-04-17T01:54:50.957Z,4.20
2023-04-17T01:57:22.148Z,4.20
2023-04-17T01:59:53.013Z,4.38
2023-04-17T02:02:23.944Z,4.60
2023-04-17T02:04:54.837Z,4.15
2023-04-17T02:07:25.817Z,4.95
2023-04-17T02:09:59.301Z,4.60
2023-04-17T02:12:31.554Z,4.78
2023-04-17T02:15:02.435Z,4.85
2023-04-17T02:17:34.275Z,4.25
2023-04-17T02:20:07.190Z,4.47
2023-04-17T02:22:38.151Z,4.82
2023-04-17T02:25:12.259Z,4.53
2023-04-17T02:27:42.993Z,4.53
2023-04-17T02:30:15.082Z,4.80
2023-04-17T02:32:46.324Z,4.32
2023-04-17T02:35:17.213Z,4.32
2023-04-17T02:37:48.219Z,3.92
2023-04-17T02:40:21.963Z,4.50
2023-04-17T02:42:56.342Z,4.75
2023-04-17T02:45:27.296Z,4.40
2023-04-17T02:47:58.212Z,4.18
2023-04-17T02:50:29.226Z,4.40
2023-04-17T02:53:26.430Z,4.38
2023-04-17T02:55:59.773Z,4.45
2023-04-17T02:58:31.318Z,4.35
2023-04-17T03:01:06.639Z,4.55
2023-04-17T03:03:43.070Z,4.75
2023-04-17T03:06:16.914Z,4.85
2023-04-17T03:08:47.814Z,5.03
2023-04-17T03:11:22.085Z,5.47
2023-04-17T03:13:53.042Z,4.95
2023-04-17T03:16:26.052Z,4.68
2023-04-17T03:18:59.303Z,4.85
2023-04-17T03:21:30.240Z,4.78
2023-04-17T03:24:01.894Z,4.80
2023-04-17T03:26:35.356Z,4.40
2023-04-17T03:29:11.080Z,4.22
2023-04-17T03:31:42.085Z,4.50
2023-04-17T03:34:13.608Z,4.40
2023-04-17T03:36:44.929Z,4.68
2023-04-17T03:39:16.603Z,3.97
2023-04-17T03:41:50.072Z,5.18
2023-04-17T03:44:21.607Z,4.82
2023-04-17T03:46:52.357Z,4.50
2023-04-17T03:49:23.558Z,5.00
2023-04-17T03:51:54.456Z,5.57
2023-04-17T03:54:26.723Z,5.78
2023-04-17T03:57:02.840Z,5.10
2023-04-17T03:59:34.805Z,5.65
2023-04-17T04:02:05.979Z,4.78
2023-04-17T04:04:39.041Z,5.28
2023-04-17T04:07:14.927Z,5.13
2023-04-17T04:09:45.768Z,5.93
2023-04-17T04:12:19.808Z,4.97
2023-04-17T04:14:50.691Z,4.47
2023-04-17T04:17:22.181Z,4.93
2023-04-17T04:19:53.218Z,4.80
2023-04-17T04:22:24.518Z,5.03
2023-04-17T04:24:57.914Z,4.70
2023-04-17T04:27:45.880Z,4.57
2023-04-17T04:30:17.744Z,4.60
2023-04-17T04:32:51.757Z,4.85
2023-04-17T04:35:22.886Z,5.32
2023-04-17T04:37:55.147Z,4.50
2023-04-17T04:40:27.160Z,4.72
2023-04-17T04:43:00.693Z,4.97
2023-04-17T04:45:38.944Z,5.20
2023-04-17T04:48:09.858Z,4.72
2023-04-17T04:50:43.541Z,5.18
2023-04-17T04:53:14.545Z,4.93
2023-04-17T04:55:51.374Z,4.70
2023-04-17T04:58:24.929Z,4.25
2023-04-17T05:00:56.477Z,4.60
2023-04-17T05:03:34.302Z,4.72
2023-04-17T05:06:06.749Z,4.85
2023-04-17T05:08:51.567Z,4.90
2023-04-17T05:11:22.160Z,4.43
2023-04-17T05:13:56.075Z,4.55
2023-04-17T05:16:31.163Z,4.40
2023-04-17T05:19:02.737Z,4.40
2023-04-17T05:21:54.653Z,4.20
2023-04-17T05:24:26.280Z,3.70
2023-04-17T05:26:57.271Z,5.50
2023-04-17T05:29:30.607Z,5.20
2023-04-17T05:32:02.165Z,5.05
2023-04-17T05:34:51.692Z,4.40
2023-04-17T05:37:26.900Z,4.07
2023-04-17T05:40:00.682Z,4.43
2023-04-17T05:42:32.501Z,4.30
2023-04-17T05:45:05.965Z,4.13
2023-04-17T05:47:36.984Z,4.25
2023-04-17T05:50:08.351Z,4.82
2023-04-17T05:52:39.817Z,4.43
2023-04-17T05:55:13.239Z,4.00
2023-04-17T05:57:43.873Z,4.15
2023-04-17T06:00:18.927Z,3.85
2023-04-17T06:02:55.613Z,5.30
2023-04-17T06:05:35.106Z,7.30
2023-04-17T06:08:05.628Z,9.05
2023-04-17T06:10:36.280Z,7.90
2023-04-17T06:13:06.756Z,5.68
2023-04-17T06:15:39.686Z,4.70
2023-04-17T06:18:10.203Z,4.10
2023-04-17T06:20:40.530Z,3.97
2023-04-17T06:23:10.864Z,4.15
2023-04-17T06:25:41.326Z,8.90
2023-04-17T06:28:11.765Z,6.72
2023-04-17T06:30:44.783Z,6.70
2023-04-17T06:33:15.128Z,5.57
2023-04-17T06:35:46.592Z,5.70
2023-04-17T06:38:25.793Z,5.78
2023-04-17T06:40:56.869Z,7.50
2023-04-17T06:43:27.309Z,5.90
2023-04-17T06:46:00.264Z,7.03
2023-04-17T06:48:30.635Z,7.20
2023-04-17T06:51:01.101Z,7.20
2023-04-17T06:53:31.437Z,8.02
2023-04-17T06:56:01.937Z,7.15
2023-04-17T06:58:32.267Z,7.55
2023-04-17T07:01:05.366Z,8.00
2023-04-17T07:03:35.965Z,7.85
2023-04-17T07:06:06.627Z,7.10
2023-04-17T07:08:37.102Z,7.95
2023-04-17T07:11:07.776Z,7.63
2023-04-17T07:13:38.097Z,8.60
2023-04-17T07:16:11.461Z,7.80
2023-04-17T07:18:41.847Z,7.55
2023-04-17T07:21:12.152Z,7.70
2023-04-17T07:23:42.568Z,7.68
2023-04-17T07:26:14.354Z,7.95
2023-04-17T07:28:44.758Z,7.90
2023-04-17T07:31:17.806Z,7.68
2023-04-17T07:33:48.253Z,8.23
2023-04-17T07:36:19.243Z,7.50
2023-04-17T07:38:49.629Z,7.53
2023-04-17T07:41:19.958Z,6.85
2023-04-17T07:43:50.276Z,6.97
2023-04-17T07:46:23.371Z,7.45
2023-04-17T07:48:53.753Z,6.85
2023-04-17T07:51:24.074Z,6.40
2023-04-17T07:53:54.462Z,7.35
2023-04-17T07:56:25.829Z,6.38
2023-04-17T07:58:56.682Z,7.10
2023-04-17T08:01:29.753Z,7.00
2023-04-17T08:04:00.442Z,6.07
2023-04-17T08:06:30.967Z,5.20
2023-04-17T08:09:02.365Z,7.38
2023-04-17T08:11:40.031Z,7.07
2023-04-17T08:14:17.614Z,6.30
2023-04-17T08:16:50.819Z,6.47
2023-04-17T08:19:21.231Z,5.22
2023-04-17T08:21:52.930Z,5.10
2023-04-17T08:24:23.281Z,5.22
2023-04-17T08:26:53.656Z,5.80
2023-04-17T08:29:23.943Z,5.53
2023-04-17T08:32:10.907Z,5.00
2023-04-17T08:34:44.163Z,4.88
2023-04-17T08:37:14.690Z,5.07
2023-04-17T08:39:45.237Z,5.15
2023-04-17T08:42:18.905Z,4.95
2023-04-17T08:44:50.136Z,5.35
2023-04-17T08:47:23.627Z,5.05
2023-04-17T08:49:56.228Z,5.43
2023-04-17T08:52:27.302Z,3.20
2023-04-17T08:54:57.638Z,4.80
2023-04-17T08:57:28.169Z,4.72
2023-04-17T08:59:58.574Z,4.03
2023-04-17T09:02:31.636Z,4.00
2023-04-17T09:05:02.300Z,4.90
2023-04-17T09:07:33.649Z,5.25
2023-04-17T09:10:04.147Z,4.97
2023-04-17T09:12:41.897Z,5.40
2023-04-17T09:15:21.671Z,5.25
2023-04-17T09:17:56.851Z,6.53
2023-04-17T09:20:27.796Z,6.35
2023-04-17T09:23:05.781Z,6.97
2023-04-17T09:25:36.135Z,7.00
2023-04-17T09:28:14.897Z,5.93
2023-04-17T09:30:45.979Z,5.78
2023-04-17T09:33:18.876Z,5.55
2023-04-17T09:35:49.163Z,5.75
2023-04-17T09:38:19.756Z,4.75
2023-04-17T09:40:50.300Z,4.80
2023-04-17T09:43:21.686Z,4.35
2023-04-17T09:45:52.518Z,5.05
2023-04-17T09:48:26.670Z,5.15
2023-04-17T09:50:58.866Z,5.28
2023-04-17T09:53:29.478Z,5.10
2023-04-17T09:56:05.764Z,4.60
2023-04-17T09:58:36.180Z,4.25
2023-04-17T10:01:09.364Z,3.65
2023-04-17T10:03:43.161Z,3.13
2023-04-17T10:06:15.142Z,4.72
2023-04-17T10:08:45.857Z,3.95
2023-04-17T10:11:17.188Z,4.55
2023-04-17T10:13:52.632Z,2.47
2023-04-17T10:16:23.316Z,3.90
2023-04-17T10:19:29.758Z,4.22
2023-04-17T10:22:35.023Z,3.63
2023-04-17T10:25:22.483Z,4.32
2023-04-17T10:30:26.802Z,4.80
2023-04-17T10:33:25.017Z,4.88
2023-04-17T10:35:58.183Z,4.80
2023-04-17T10:38:39.072Z,2.80
2023-04-17T10:41:12.186Z,4.30
2023-04-17T10:43:47.693Z,4.07
2023-04-17T10:46:18.212Z,3.80
2023-04-17T10:48:53.473Z,3.42
2023-04-17T10:51:45.771Z,3.40
2023-04-17T10:54:16.523Z,4.22
2023-04-17T10:56:49.500Z,2.97
2023-04-17T10:59:21.353Z,3.45
2023-04-17T11:02:07.940Z,4.30
2023-04-17T11:04:38.760Z,3.53
2023-04-17T11:07:11.740Z,4.55
2023-04-17T11:09:42.831Z,3.45
2023-04-17T11:12:15.766Z,4.57
2023-04-17T11:14:46.597Z,5.22
2023-04-17T11:17:17.221Z,3.20
2023-04-17T11:19:48.259Z,3.78
2023-04-17T11:22:21.506Z,3.17
2023-04-17T11:24:54.274Z,3.05
2023-04-17T11:27:25.821Z,3.95
2023-04-17T11:29:56.277Z,3.90
2023-04-17T11:32:26.751Z,3.03
2023-04-17T11:34:57.540Z,2.40
2023-04-17T11:37:30.526Z,3.63
2023-04-17T11:40:10.321Z,4.60
2023-04-17T11:42:47.778Z,3.22
2023-04-17T11:45:18.262Z,4.88
2023-04-17T11:47:50.432Z,3.05
2023-04-17T11:50:22.228Z,3.53
2023-04-17T11:52:55.169Z,4.28
2023-04-17T11:55:30.443Z,2.10
2023-04-17T11:58:01.566Z,4.57
2023-04-17T12:00:32.873Z,4.22
2023-04-17T12:03:05.137Z,4.75
2023-04-17T12:05:35.779Z,4.72
2023-04-17T12:08:10.262Z,5.32
2023-04-17T12:10:44.950Z,3.65
2023-04-17T12:13:15.601Z,2.58
2023-04-17T12:15:46.252Z,5.13
2023-04-17T12:18:17.092Z,4.82
2023-04-17T12:20:47.719Z,2.20
2023-04-17T12:23:20.614Z,3.95
2023-04-17T12:25:50.873Z,5.28
2023-04-17T12:28:22.265Z,4.60
2023-04-17T12:30:52.671Z,4.78
2023-04-17T12:33:23.004Z,3.70
2023-04-17T12:35:53.629Z,3.47
2023-04-17T12:38:26.734Z,3.33
2023-04-17T12:40:57.062Z,4.00
2023-04-17T12:43:27.690Z,3.92
2023-04-17T12:45:58.545Z,4.88
2023-04-17T12:48:30.772Z,2.67
2023-04-17T12:51:02.659Z,5.20
2023-04-17T12:53:35.673Z,3.88
2023-04-17T12:56:06.152Z,4.57
2023-04-17T12:58:36.492Z,2.33
2023-04-17T13:01:06.997Z,2.40
2023-04-17T13:03:38.606Z,4.28
2023-04-17T13:06:09.595Z,4.95
2023-04-17T13:08:42.685Z,5.05
2023-04-17T13:11:13.385Z,4.05
2023-04-17T13:13:43.757Z,3.45
2023-04-17T13:16:14.273Z,4.22
2023-04-17T13:18:44.697Z,4.40
2023-04-17T13:21:15.158Z,4.03
2023-04-17T13:23:48.082Z,2.95
2023-04-17T13:26:18.466Z,3.22
2023-04-17T13:28:49.108Z,3.45
2023-04-17T13:31:19.494Z,4.55
2023-04-17T13:33:49.987Z,3.50
2023-04-17T13:36:20.437Z,3.53
2023-04-17T13:38:53.438Z,3.60
2023-04-17T13:41:24.242Z,2.47
2023-04-17T13:43:55.492Z,2.70
2023-04-17T13:46:26.078Z,4.40
2023-04-17T13:48:56.518Z,2.72
2023-04-17T13:51:27.090Z,4.45
2023-04-17T13:54:01.549Z,3.92
2023-04-17T13:56:32.430Z,3.42
2023-04-17T13:59:02.753Z,3.10
2023-04-17T14:01:33.148Z,2.85
2023-04-17T14:04:03.804Z,2.85
2023-04-17T14:06:35.681Z,3.75
2023-04-17T14:09:08.776Z,2.80
2023-04-17T14:11:39.448Z,2.33
2023-04-17T14:14:10.159Z,4.57
2023-04-17T14:16:40.565Z,3.70
2023-04-17T14:19:14.437Z,2.55
2023-04-17T14:21:45.580Z,2.88
2023-04-17T14:24:18.646Z,2.67
2023-04-17T14:26:49.036Z,2.90
2023-04-17T14:29:20.702Z,3.25
2023-04-17T14:31:51.037Z,2.95
2023-04-17T14:34:21.481Z,3.97
2023-04-17T14:36:51.905Z,2.20
2023-04-17T14:39:24.916Z,2.13
2023-04-17T14:41:55.353Z,2.50
2023-04-17T14:44:25.878Z,2.35
2023-04-17T14:46:57.148Z,3.42
2023-04-17T14:49:27.584Z,2.95
2023-04-17T14:51:58.299Z,3.10
2023-04-17T14:54:31.289Z,3.10
2023-04-17T14:57:01.874Z,2.17
2023-04-17T14:59:32.500Z,1.90
2023-04-17T15:02:02.973Z,2.45
2023-04-17T15:04:33.337Z,2.08
2023-04-17T15:07:04.996Z,1.60
2023-04-17T15:09:37.969Z,3.58
2023-04-17T15:12:09.029Z,3.30
2023-04-17T15:14:39.565Z,3.00
2023-04-17T15:17:09.860Z,2.42
2023-04-17T15:19:40.198Z,2.13
2023-04-17T15:22:10.547Z,2.90
2023-04-17T15:24:43.515Z,2.10
2023-04-17T15:27:14.415Z,2.70
2023-04-17T15:29:47.065Z,2.35
2023-04-17T15:32:17.415Z,1.70
2023-04-17T15:34:48.653Z,3.13
2023-04-17T15:37:19.406Z,2.97
2023-04-17T15:39:52.398Z,1.92
2023-04-17T15:42:22.839Z,3.40
2023-04-17T15:44:55.611Z,3.08
2023-04-17T15:47:26.078Z,2.55
2023-04-17T15:49:56.406Z,3.08
2023-04-17T15:52:26.721Z,3.08
2023-04-17T15:54:59.594Z,2.88
2023-04-17T15:57:30.027Z,2.83
2023-04-17T16:00:00.436Z,2.45
2023-04-17T16:02:31.524Z,3.20
2023-04-17T16:05:02.272Z,2.90
2023-04-17T16:07:32.637Z,3.17
2023-04-17T16:10:05.557Z,3.60
2023-04-17T16:12:35.910Z,3.17
2023-04-17T16:15:06.498Z,3.85
2023-04-17T16:17:36.925Z,3.40
2023-04-17T16:20:08.863Z,3.42
2023-04-17T16:22:39.230Z,3.92
2023-04-17T16:25:13.426Z,4.53
2023-04-17T16:27:44.083Z,3.15
2023-04-17T16:30:15.163Z,4.10
2023-04-17T16:32:48.811Z,4.15
2023-04-17T16:35:19.186Z,4.93
2023-04-17T16:37:49.595Z,3.70
2023-04-17T16:40:22.815Z,3.53
2023-04-17T16:42:53.270Z,4.28
2023-04-17T16:45:24.107Z,4.10
2023-04-17T16:47:54.549Z,3.63
2023-04-17T16:50:25.779Z,3.53
2023-04-17T16:52:56.156Z,3.65
2023-04-17T16:55:29.383Z,3.53
2023-04-17T16:58:00.400Z,3.47
2023-04-17T17:00:30.698Z,3.60
2023-04-17T17:03:01.398Z,4.10
2023-04-17T17:05:31.881Z,3.28
2023-04-17T17:08:02.232Z,3.80
2023-04-17T17:10:35.399Z,3.35
2023-04-17T17:13:08.881Z,3.38
2023-04-17T17:15:39.305Z,2.97
2023-04-17T17:18:10.147Z,3.45
2023-04-17T17:20:40.545Z,3.58
2023-04-17T17:23:11.102Z,2.80
2023-04-17T17:25:44.466Z,4.28
2023-04-17T17:28:14.881Z,3.53
2023-04-17T17:30:45.184Z,3.58
2023-04-17T17:33:17.154Z,3.15
2023-04-17T17:35:47.543Z,4.13
2023-04-17T17:38:18.061Z,3.88
2023-04-17T17:40:51.160Z,3.25
2023-04-17T17:43:21.462Z,3.90
2023-04-17T17:45:52.291Z,4.22
2023-04-17T17:48:22.785Z,3.85
2023-04-17T17:50:57.350Z,3.67
2023-04-17T17:53:27.761Z,3.83
2023-04-17T17:56:00.765Z,3.80
2023-04-17T17:58:31.258Z,3.92
2023-04-17T18:01:01.678Z,3.78
2023-04-17T18:03:33.071Z,5.20
2023-04-17T18:06:03.626Z,4.88
2023-04-17T18:08:33.926Z,5.30
2023-04-17T18:11:07.016Z,3.75
2023-04-17T18:13:37.292Z,4.20
2023-04-17T18:16:08.232Z,3.08
2023-04-17T18:18:39.078Z,3.40
2023-04-17T18:21:09.897Z,4.18
2023-04-17T18:23:40.291Z,4.45
2023-04-17T18:26:13.315Z,3.88
2023-04-17T18:28:43.701Z,3.78
2023-04-17T18:31:14.628Z,3.13
2023-04-17T18:33:45.249Z,4.00
2023-04-17T18:36:15.570Z,2.92
2023-04-17T18:38:45.942Z,2.90
2023-04-17T18:41:19.189Z,4.13
2023-04-17T18:43:49.495Z,2.63
2023-04-17T18:46:20.047Z,3.05
2023-04-17T18:48:50.475Z,2.22
2023-04-17T18:51:20.933Z,2.45
2023-04-17T18:53:51.476Z,4.45
2023-04-17T18:56:24.499Z,2.63
2023-04-17T18:58:54.803Z,2.63
2023-04-17T19:01:25.147Z,2.22
2023-04-17T19:03:55.721Z,2.10
2023-04-17T19:06:26.635Z,3.20
2023-04-17T19:08:57.392Z,3.08
2023-04-17T19:11:31.203Z,2.53
2023-04-17T19:14:04.724Z,2.88
2023-04-17T19:16:35.185Z,2.03
2023-04-17T19:19:05.938Z,2.20
2023-04-17T19:21:37.255Z,2.75
2023-04-17T19:24:08.916Z,1.92
2023-04-17T19:26:42.324Z,2.80
2023-04-17T19:29:14.289Z,2.83
2023-04-17T19:31:46.274Z,2.17
2023-04-17T19:34:17.483Z,2.40
2023-04-17T19:36:48.420Z,2.05
2023-04-17T19:39:19.471Z,1.90
2023-04-17T19:41:53.571Z,2.80
2023-04-17T19:44:25.992Z,2.55
2023-04-17T19:46:59.649Z,1.75
2023-04-17T19:49:31.566Z,2.00
2023-04-17T19:52:02.463Z,2.65
2023-04-17T19:54:33.298Z,1.80
2023-04-17T19:57:06.957Z,2.53
2023-04-17T19:59:37.935Z,1.95
2023-04-17T20:02:09.692Z,1.40
2023-04-17T20:04:40.679Z,3.03
2023-04-17T20:07:11.683Z,3.03
2023-04-17T20:09:42.656Z,2.30
2023-04-17T20:12:16.172Z,2.47
2023-04-17T20:14:47.108Z,2.40
2023-04-17T20:17:18.059Z,3.65
2023-04-17T20:19:49.184Z,2.75
2023-04-17T20:22:20.084Z,2.47
2023-04-17T20:24:51.628Z,3.38
2023-04-17T20:27:25.217Z,3.10
2023-04-17T20:29:56.011Z,4.82
2023-04-17T20:32:27.526Z,3.10
2023-04-17T20:34:58.428Z,4.03
2023-04-17T20:37:29.280Z,4.13
2023-04-17T20:40:00.159Z,4.57
2023-04-17T20:42:33.699Z,3.67
2023-04-17T20:45:04.652Z,6.20
2023-04-17T20:47:37.445Z,5.95
2023-04-17T20:50:09.759Z,7.55
2023-04-17T20:52:40.576Z,6.93
2023-04-17T20:55:12.372Z,8.30
2023-04-17T20:57:45.772Z,7.97
2023-04-17T21:00:17.642Z,8.05
2023-04-17T21:02:48.602Z,8.60
2023-04-17T21:05:19.630Z,6.78
2023-04-17T21:07:51.735Z,6.63
2023-04-17T21:10:22.886Z,5.90
2023-04-17T21:12:56.268Z,7.20
2023-04-17T21:15:27.155Z,9.55
2023-04-17T21:17:58.271Z,10.95
2023-04-17T21:20:29.125Z,10.10
2023-04-17T21:22:59.932Z,11.23
2023-04-17T21:25:30.946Z,11.68
2023-04-17T21:28:04.459Z,12.88
2023-04-17T21:30:35.339Z,7.78
2023-04-17T21:33:07.107Z,14.07
2023-04-17T21:35:39.340Z,15.43
2023-04-17T21:38:10.148Z,16.15
2023-04-17T21:40:50.538Z,13.73
2023-04-17T21:43:24.976Z,16.35
2023-04-17T21:45:57.368Z,8.98
2023-04-17T21:48:28.432Z,16.25
2023-04-17T21:51:04.503Z,13.88
2023-04-17T21:53:36.402Z,15.27
2023-04-17T21:56:07.783Z,16.88
2023-04-17T21:58:41.191Z,16.38
2023-04-17T22:01:12.114Z,17.50
2023-04-17T22:03:42.883Z,17.65
2023-04-17T22:06:13.762Z,16.00
2023-04-17T22:08:44.670Z,18.17
2023-04-17T22:11:15.550Z,18.65
2023-04-17T22:13:49.043Z,16.63
2023-04-17T22:16:19.897Z,18.63
2023-04-17T22:18:50.692Z,19.80
2023-04-17T22:21:21.533Z,19.77
2023-04-17T22:23:52.363Z,20.50
2023-04-17T22:26:24.349Z,19.77
2023-04-17T22:28:57.822Z,19.80
2023-04-17T22:31:28.759Z,20.08
2023-04-17T22:33:59.633Z,20.92
2023-04-17T22:36:30.460Z,19.13
2023-04-17T22:39:01.400Z,20.23
2023-04-17T22:41:32.304Z,20.02
2023-04-17T22:44:06.426Z,19.80
2023-04-17T22:46:37.268Z,20.83
2023-04-17T22:49:08.706Z,20.67
2023-04-17T22:51:39.518Z,19.55
2023-04-17T22:54:21.624Z,19.95
2023-04-17T22:56:54.289Z,18.35
2023-04-17T22:59:28.038Z,19.00
2023-04-17T23:01:59.007Z,20.55
2023-04-17T23:04:29.884Z,18.15
2023-04-17T23:07:00.856Z,19.45
2023-04-17T23:09:31.756Z,19.35
2023-04-17T23:12:02.511Z,18.88
2023-04-17T23:14:35.973Z,19.40
2023-04-17T23:17:06.860Z,19.60
2023-04-17T23:19:37.710Z,19.45
2023-04-17T23:22:09.466Z,18.77
2023-04-17T23:24:40.364Z,18.77
2023-04-17T23:27:11.401Z,16.75
2023-04-17T23:29:44.897Z,19.10
2023-04-17T23:32:15.891Z,18.25
2023-04-17T23:34:46.710Z,18.38
2023-04-17T23:37:17.573Z,18.02
2023-04-17T23:39:48.512Z,18.58
2023-04-17T23:42:19.404Z,18.90
2023-04-17T23:44:52.728Z,18.63
2023-04-17T23:47:23.508Z,18.38
2023-04-17T23:49:54.625Z,18.67
2023-04-17T23:52:25.501Z,18.38
2023-04-17T23:54:56.364Z,19.05
2023-04-17T23:57:27.602Z,18.05
